Data for 02/07/2014

Time Sea-Level Adjusted Pressure Absolute Pressure Temperature Relative Humidity Dew Point   
(mb) (inHg) (mb) (inHg) (C) (F) (%) (C) (F)
00:05 1012 29.88 841 24.83 -27 -16.7 69 -31.1 -24
00:10 1012 29.88 841 24.83 -27 -16.5 69 -31 -23.7
00:15 1012 29.88 841 24.83 -26.8 -16.2 69 -30.8 -23.4
00:20 1012 29.88 841 24.83 -26.8 -16.3 70 -30.8 -23.5
00:25 1012 29.88 841 24.83 -27.2 -16.9 71 -30.9 -23.6
00:30 1012 29.88 841 24.83 -27.3 -17.2 70 -31.3 -24.3
00:35 1012 29.88 841 24.83 -27.6 -17.6 72 -31.2 -24.2
00:40 1012 29.88 841 24.83 -27.5 -17.4 72 -31 -23.9
00:45 1012 29.88 841 24.83 -27.3 -17.2 71 -31.1 -24
00:50 1012 29.88 841 24.83 -27.4 -17.2 70 -31.3 -24.3
00:55 1011 29.85 841 24.83 -27.5 -17.5 69 -31.6 -24.8
01:00 1011 29.85 841 24.83 -27.7 -17.9 70 -31.6 -24.9
01:05 1011 29.85 841 24.83 -27.8 -18.1 71 -31.5 -24.7
01:10 1011 29.85 840 24.81 -27.8 -18 72 -31.4 -24.5
01:15 1011 29.85 840 24.81 -27.8 -18.1 73 -31.2 -24.2
01:20 1011 29.85 840 24.81 -27.5 -17.6 74 -30.9 -23.6
01:25 1011 29.85 840 24.81 -27.2 -16.9 73 -30.7 -23.2
01:30 1011 29.85 840 24.81 -26.9 -16.4 71 -30.6 -23.2
01:35 1011 29.85 840 24.81 -26.9 -16.4 71 -30.6 -23.1
01:40 1011 29.85 840 24.81 -26.9 -16.3 71 -30.7 -23.2
01:45 1011 29.85 840 24.81 -27 -16.6 71 -30.9 -23.5
01:50 1011 29.85 840 24.81 -27.1 -16.8 73 -30.5 -23
01:55 1011 29.85 840 24.81 -27 -16.7 72 -30.6 -23.1
02:00 1011 29.85 840 24.81 -27 -16.6 72 -30.6 -23.1
02:05 1010 29.83 840 24.81 -27.1 -16.8 72 -30.7 -23.3
02:10 1010 29.83 840 24.81 -27.2 -17 72 -30.8 -23.4
02:15 1010 29.83 839 24.78 -27.2 -16.9 72 -30.8 -23.4
02:20 1010 29.83 839 24.78 -27 -16.5 72 -30.6 -23.2
02:25 1010 29.83 839 24.78 -26.8 -16.3 70 -30.7 -23.3
02:30 1010 29.83 839 24.78 -26.7 -16 70 -30.6 -23
02:35 1010 29.83 839 24.78 -26.4 -15.5 69 -30.5 -22.8
02:40 1010 29.83 839 24.78 -26.3 -15.4 69 -30.4 -22.8
02:45 1010 29.83 839 24.78 -26.1 -15 70 -30 -22.1
02:50 1010 29.83 839 24.78 -25.9 -14.6 70 -29.9 -21.8
02:55 1010 29.83 839 24.78 -25.9 -14.7 70 -29.9 -21.9
03:00 1010 29.83 839 24.78 -26 -14.8 71 -29.9 -21.8
03:05 1010 29.83 839 24.78 -25.9 -14.7 70 -29.9 -21.8
03:10 1009 29.8 839 24.78 -25.9 -14.7 70 -29.9 -21.9
03:15 1009 29.8 839 24.78 -25.9 -14.6 69 -30 -21.9
03:20 1009 29.8 839 24.78 -25.7 -14.3 68 -29.9 -21.9
03:25 1009 29.8 838 24.75 -25.8 -14.5 68 -30.1 -22.2
03:30 1009 29.8 838 24.75 -25.8 -14.5 69 -30 -22
03:35 1009 29.8 838 24.75 -25.8 -14.4 69 -29.8 -21.7
03:40 1009 29.8 838 24.75 -25.7 -14.3 71 -29.5 -21.1
03:45 1009 29.8 838 24.75 -25.8 -14.4 72 -29.4 -21
03:50 1009 29.8 838 24.75 -25.7 -14.3 71 -29.5 -21.2
03:55 1009 29.8 838 24.75 -25.5 -13.9 70 -29.5 -21.1
04:00 1009 29.8 838 24.75 -25.4 -13.7 72 -29.1 -20.4
04:05 1008 29.77 838 24.75 -25.4 -13.7 72 -29 -20.3
04:10 1008 29.77 838 24.75 -25.4 -13.7 73 -29 -20.1
04:15 1008 29.77 838 24.75 -25.4 -13.6 73 -28.9 -20.1
04:20 1008 29.77 838 24.75 -25.3 -13.5 72 -28.9 -20
04:25 1008 29.77 838 24.75 -25.2 -13.3 72 -28.8 -19.8
04:30 1008 29.77 837 24.72 -25.1 -13.1 71 -28.8 -19.9
04:35 1008 29.77 838 24.75 -24.9 -12.9 71 -28.8 -19.9
04:40 1008 29.77 838 24.75 -24.6 -12.3 70 -28.7 -19.6
04:45 1008 29.77 838 24.75 -24.5 -12 71 -28.3 -19
04:50 1008 29.77 838 24.75 -24.5 -12 71 -28.4 -19.1
04:55 1008 29.77 838 24.75 -24.6 -12.2 71 -28.4 -19.1
05:00 1008 29.77 838 24.75 -24.6 -12.2 71 -28.4 -19.2
05:05 1008 29.77 838 24.75 -24.5 -12.1 70 -28.5 -19.3
05:10 1008 29.77 838 24.75 -24.5 -12.1 70 -28.5 -19.3
05:15 1008 29.77 837 24.72 -24.7 -12.5 69 -28.8 -19.9
05:20 1008 29.77 837 24.72 -24.9 -12.8 70 -28.9 -20.1
05:25 1008 29.77 837 24.72 -25.1 -13.1 71 -28.9 -20
05:30 1008 29.77 837 24.72 -24.9 -12.9 71 -28.7 -19.7
05:35 1008 29.77 837 24.72 -24.9 -12.8 72 -28.6 -19.5
05:40 1008 29.77 837 24.72 -24.9 -12.7 71 -28.7 -19.6
05:45 1008 29.77 837 24.72 -24.8 -12.6 71 -28.6 -19.5
05:50 1008 29.77 837 24.72 -24.8 -12.6 72 -28.4 -19.1
05:55 1008 29.77 837 24.72 -24.7 -12.5 72 -28.5 -19.2
06:00 1008 29.77 837 24.72 -24.6 -12.3 69 -28.8 -19.8
06:05 1008 29.77 837 24.72 -24.5 -12.2 71 -28.4 -19.1
06:10 1008 29.77 837 24.72 -24.4 -11.8 69 -28.5 -19.4
06:15 1008 29.77 837 24.72 -24.3 -11.7 67 -28.7 -19.6
06:20 1008 29.77 837 24.72 -24.2 -11.6 68 -28.5 -19.2
06:25 1008 29.77 837 24.72 -24 -11.3 69 -28.2 -18.7
06:30 1008 29.77 837 24.72 -24 -11.1 67 -28.4 -19.1
06:35 1008 29.77 837 24.72 -23.8 -10.8 68 -28.2 -18.7
06:40 1008 29.77 837 24.72 -23.6 -10.6 66 -28.4 -19
06:45 1008 29.77 837 24.72 -23.4 -10.2 65 -28.3 -19
06:50 1008 29.77 837 24.72 -23.3 -9.9 65 -28.1 -18.7
06:55 1008 29.77 837 24.72 -23.1 -9.5 61 -28.6 -19.4
07:00 1008 29.77 837 24.72 -23 -9.4 61 -28.6 -19.4
07:05 1008 29.77 837 24.72 -23.3 -9.9 63 -28.6 -19.4
07:10 1007 29.74 837 24.72 -23.2 -9.7 64 -28.3 -18.9
07:15 1007 29.74 837 24.72 -23.1 -9.5 64 -28.1 -18.5
07:20 1007 29.74 837 24.72 -23 -9.3 63 -28.1 -18.7
07:25 1008 29.77 837 24.72 -23 -9.3 63 -28.1 -18.6
07:30 1008 29.77 837 24.72 -22.9 -9.2 65 -27.8 -18.1
07:35 1008 29.77 837 24.72 -22.7 -8.8 65 -27.5 -17.5
07:40 1008 29.77 837 24.72 -22.6 -8.6 67 -27.2 -17
07:45 1008 29.77 837 24.72 -22.5 -8.6 67 -27.1 -16.7
07:50 1008 29.77 837 24.72 -22.6 -8.7 69 -26.8 -16.2
07:55 1007 29.74 837 24.72 -22.6 -8.6 70 -26.7 -16
08:00 1007 29.74 837 24.72 -22.4 -8.3 70 -26.5 -15.6
08:05 1007 29.74 836 24.69 -22.4 -8.3 68 -26.8 -16.2
08:10 1007 29.74 836 24.69 -22.6 -8.7 69 -26.8 -16.3
08:15 1006 29.71 836 24.69 -22.6 -8.7 68 -27 -16.6
08:20 1006 29.71 835 24.66 -22.6 -8.6 66 -27.3 -17.1
08:25 1006 29.71 836 24.69 -22.5 -8.5 68 -26.9 -16.4
08:30 1007 29.74 836 24.69 -22.4 -8.3 67 -27 -16.6
08:35 1007 29.74 836 24.69 -22.2 -8 66 -27 -16.5
08:40 1007 29.74 836 24.69 -22.1 -7.8 67 -26.7 -16.1
08:45 1007 29.74 836 24.69 -21.7 -7.1 67 -26.3 -15.3
08:50 1007 29.74 836 24.69 -21.4 -6.6 67 -26 -14.8
08:55 1008 29.77 837 24.72 -21.3 -6.3 68 -25.8 -14.4
09:00 1008 29.77 837 24.72 -21.4 -6.5 69 -25.6 -14.1
09:05 1008 29.77 837 24.72 -21.6 -6.9 71 -25.6 -14
09:10 1008 29.77 837 24.72 -21.8 -7.2 72 -25.5 -13.9
09:15 1008 29.77 837 24.72 -22.2 -8 72 -25.9 -14.6
09:20 1008 29.77 837 24.72 -22.9 -9.3 76 -26 -14.8
09:25 1008 29.77 837 24.72 -22.9 -9.2 77 -25.9 -14.5
09:30 1008 29.77 837 24.72 -22.7 -8.8 76 -25.8 -14.5
09:35 1008 29.77 837 24.72 -22.6 -8.7 76 -25.8 -14.4
09:40 1008 29.77 837 24.72 -22.3 -8.2 76 -25.4 -13.8
09:45 1008 29.77 837 24.72 -22 -7.7 74 -25.5 -13.8
09:50 1008 29.77 837 24.72 -22.1 -7.8 75 -25.5 -13.9
09:55 1008 29.77 837 24.72 -22 -7.5 74 -25.4 -13.8
10:00 1008 29.77 837 24.72 -21.7 -7.1 73 -25.4 -13.6
10:05 1008 29.77 837 24.72 -21.6 -6.9 73 -25.2 -13.4
10:10 1008 29.77 837 24.72 -21.4 -6.4 71 -25.3 -13.6
10:15 1008 29.77 837 24.72 -21.3 -6.3 72 -25.1 -13.2
10:20 1008 29.77 837 24.72 -20.9 -5.6 70 -25.1 -13.2
10:25 1008 29.77 837 24.72 -20.5 -4.8 67 -25.1 -13.2
10:30 1008 29.77 837 24.72 -20.3 -4.6 66 -25.2 -13.3
10:35 1008 29.77 837 24.72 -20.2 -4.4 67 -24.8 -12.7
10:40 1008 29.77 837 24.72 -20 -4 65 -25 -12.9
10:45 1008 29.77 837 24.72 -19.9 -3.7 67 -24.5 -12.2
10:50 1008 29.77 837 24.72 -19.7 -3.5 68 -24.3 -11.7
10:55 1007 29.74 837 24.72 -19.7 -3.5 69 -24 -11.2
11:00 1007 29.74 837 24.72 -19.6 -3.3 72 -23.5 -10.4
11:05 1007 29.74 837 24.72 -19.6 -3.2 76 -22.8 -9.1
11:10 1007 29.74 837 24.72 -19.4 -2.8 75 -22.8 -9
11:15 1007 29.74 836 24.69 -19.2 -2.6 76 -22.4 -8.3
11:20 1007 29.74 837 24.72 -19 -2.1 76 -22.2 -7.9
11:25 1007 29.74 837 24.72 -18.6 -1.5 76 -21.8 -7.2
11:30 1007 29.74 836 24.69 -18.2 -0.7 76 -21.4 -6.5
11:35 1007 29.74 837 24.72 -17.8 -0 75 -21.2 -6.1
11:40 1007 29.74 837 24.72 -17.4 0.6 76 -20.7 -5.2
11:45 1008 29.77 837 24.72 -16.9 1.5 76 -20.3 -4.5
11:50 1008 29.77 837 24.72 -16.5 2.4 73 -20.2 -4.4
11:55 1008 29.77 837 24.72 -16.4 2.6 74 -19.9 -3.9
12:00 1008 29.77 837 24.72 -16.2 2.8 73 -19.9 -3.8
12:05 1008 29.77 837 24.72 -16.8 1.7 72 -20.8 -5.5
12:10 1008 29.77 837 24.72 -17.9 -0.3 72 -21.8 -7.3
12:15 1008 29.77 837 24.72 -18 -0.4 70 -22.2 -8
12:20 1008 29.77 837 24.72 -18.4 -1.1 70 -22.6 -8.7
12:25 1008 29.77 837 24.72 -18.3 -1 70 -22.5 -8.5
12:30 1008 29.77 837 24.72 -17.9 -0.2 69 -22.3 -8.2
12:35 1008 29.77 837 24.72 -17.8 0.1 67 -22.5 -8.4
12:40 1008 29.77 837 24.72 -17.7 0.2 67 -22.4 -8.3
12:45 1008 29.77 837 24.72 -17.6 0.4 68 -22.2 -8
12:50 1008 29.77 837 24.72 -17.4 0.7 68 -21.9 -7.5
12:55 1008 29.77 837 24.72 -16.5 2.4 65 -21.5 -6.7
13:00 1008 29.77 837 24.72 -15.1 4.9 62 -20.8 -5.5
13:05 1008 29.77 837 24.72 -15.1 4.8 63 -20.6 -5.2
13:10 1008 29.77 837 24.72 -16.1 3.1 64 -21.4 -6.5
13:15 1008 29.77 837 24.72 -16 3.2 64 -21.3 -6.3
13:20 1008 29.77 837 24.72 -15.6 3.9 63 -21.1 -6
13:25 1008 29.77 837 24.72 -15.4 4.3 65 -20.6 -5.1
13:30 1008 29.77 837 24.72 -15.9 3.3 68 -20.6 -5.1
13:35 1008 29.77 837 24.72 -16.4 2.5 69 -20.8 -5.4
13:40 1008 29.77 837 24.72 -15.6 3.8 66 -20.5 -5
13:45 1008 29.77 837 24.72 -14.5 6 62 -20.3 -4.5
13:50 1008 29.77 837 24.72 -14.4 6.1 60 -20.5 -4.9
13:55 1008 29.77 837 24.72 -13.7 7.3 58 -20.3 -4.5
14:00 1008 29.77 837 24.72 -13.7 7.4 57 -20.4 -4.7
14:05 1008 29.77 837 24.72 -14.2 6.5 63 -19.8 -3.7
14:10 1008 29.77 837 24.72 -14.7 5.6 62 -20.5 -4.9
14:15 1008 29.77 837 24.72 -14.3 6.3 61 -20.3 -4.6
14:20 1008 29.77 837 24.72 -14 6.8 61 -20 -4
14:25 1008 29.77 837 24.72 -13.9 7.1 61 -19.9 -3.7
14:30 1008 29.77 837 24.72 -14.3 6.2 60 -20.5 -4.8
14:35 1008 29.77 837 24.72 -14 6.8 59 -20.4 -4.7
14:40 1008 29.77 837 24.72 -14 6.8 59 -20.3 -4.6
14:45 1008 29.77 837 24.72 -13.8 7.1 59 -20.3 -4.5
14:50 1008 29.77 837 24.72 -14.1 6.7 63 -19.7 -3.5
14:55 1008 29.77 837 24.72 -14.1 6.5 61 -20.2 -4.3
15:00 1008 29.77 837 24.72 -14.8 5.3 65 -20.1 -4.2
15:05 1008 29.77 837 24.72 -15.3 4.5 66 -20.3 -4.5
15:10 1008 29.77 837 24.72 -15 5.1 66 -20.1 -4.1
15:15 1008 29.77 837 24.72 -14.2 6.4 61 -20.3 -4.5
15:20 1008 29.77 837 24.72 -14.1 6.7 61 -20.1 -4.2
15:25 1008 29.77 837 24.72 -14.4 6.2 63 -20 -4.1
15:30 1008 29.77 837 24.72 -14.7 5.6 64 -20.1 -4.2
15:35 1008 29.77 837 24.72 -14.1 6.6 60 -20.2 -4.4
15:40 1008 29.77 837 24.72 -12.4 9.6 55 -19.7 -3.4
15:45 1008 29.77 837 24.72 -11.8 10.8 54 -19.3 -2.7
15:50 1008 29.77 837 24.72 -11.5 11.3 54 -19.1 -2.5
15:55 1008 29.77 837 24.72 -11.5 11.3 53 -19.3 -2.8
16:00 1008 29.77 837 24.72 -11.1 12 51 -19.4 -2.9
16:05 1008 29.77 837 24.72 -10.6 12.9 52 -18.8 -1.8
16:10 1008 29.77 837 24.72 -11.2 11.8 55 -18.6 -1.5
16:15 1008 29.77 838 24.75 -11.8 10.7 57 -18.7 -1.7
16:20 1008 29.77 838 24.75 -11.1 12.1 54 -18.6 -1.6
16:25 1008 29.77 838 24.75 -9.9 14.3 52 -18.1 -0.5
16:30 1008 29.77 838 24.75 -9.7 14.6 52 -17.8 -0.1
16:35 1008 29.77 838 24.75 -8.8 16.3 51 -17.2 1
16:40 1008 29.77 838 24.75 -8.5 16.8 48 -17.6 0.3
16:45 1008 29.77 838 24.75 -7.9 17.7 46 -17.6 0.3
16:50 1008 29.77 838 24.75 -8.3 17.2 49 -17.1 1.1
16:55 1008 29.77 838 24.75 -8.5 16.8 50 -17 1.3
17:00 1008 29.77 838 24.75 -9 15.8 53 -17 1.4
17:05 1008 29.77 838 24.75 -8.9 16 50 -17.5 0.6
17:10 1008 29.77 838 24.75 -8.8 16.2 50 -17.4 0.7
17:15 1008 29.77 838 24.75 -8.5 16.8 51 -17 1.4
17:20 1009 29.8 838 24.75 -8.7 16.4 51 -17.2 1.1
17:25 1009 29.8 838 24.75 -8.7 16.3 49 -17.7 0.2
17:30 1009 29.8 838 24.75 -8.7 16.3 48 -18 -0.3
17:35 1009 29.8 838 24.75 -9 15.8 47 -18.3 -0.9
17:40 1009 29.8 838 24.75 -9.6 14.7 51 -17.9 -0.2
17:45 1009 29.8 838 24.75 -10.3 13.5 52 -18.3 -0.9
17:50 1009 29.8 838 24.75 -10.5 13.2 53 -18.2 -0.8
17:55 1009 29.8 838 24.75 -10.4 13.3 55 -17.8 -0.1
18:00 1009 29.8 838 24.75 -10.1 13.7 54 -17.8 -0.1
18:05 1009 29.8 838 24.75 -10.2 13.6 54 -17.8 -0
18:10 1009 29.8 838 24.75 -10.6 13 54 -18.2 -0.7
18:15 1009 29.8 838 24.75 -10.4 13.4 53 -18.2 -0.7
18:20 1009 29.8 838 24.75 -10.8 12.6 54 -18.4 -1.1
18:25 1009 29.8 838 24.75 -11.8 10.7 59 -18.4 -1.1
18:30 1009 29.8 838 24.75 -12.9 8.9 62 -18.7 -1.7
18:35 1009 29.8 838 24.75 -13.4 7.9 64 -18.8 -1.9
18:40 1009 29.8 838 24.75 -13.3 8.1 63 -18.8 -1.9
18:45 1009 29.8 838 24.75 -13.4 7.9 63 -18.9 -2
18:50 1009 29.8 838 24.75 -13.6 7.6 65 -18.8 -1.8
18:55 1009 29.8 838 24.75 -13.6 7.6 67 -18.5 -1.2
19:00 1009 29.8 838 24.75 -13.3 8 65 -18.5 -1.4
19:05 1009 29.8 839 24.78 -13.5 7.7 66 -18.6 -1.5
19:10 1009 29.8 839 24.78 -13.7 7.4 66 -18.8 -1.9
19:15 1010 29.83 839 24.78 -13.7 7.4 65 -19 -2.1
19:20 1010 29.83 839 24.78 -14 6.9 65 -19.2 -2.5
19:25 1010 29.83 839 24.78 -14.3 6.3 67 -19.2 -2.5
19:30 1010 29.83 839 24.78 -14.5 5.9 68 -19.2 -2.6
19:35 1010 29.83 839 24.78 -14.9 5.2 69 -19.3 -2.8
19:40 1010 29.83 839 24.78 -15.1 4.9 71 -19.3 -2.7
19:45 1010 29.83 839 24.78 -15.2 4.7 71 -19.3 -2.8
19:50 1010 29.83 839 24.78 -15.3 4.5 72 -19.2 -2.5
19:55 1010 29.83 839 24.78 -15.6 4 73 -19.3 -2.8
20:00 1010 29.83 839 24.78 -15.7 3.8 74 -19.3 -2.8
20:05 1010 29.83 839 24.78 -15 5 71 -19.2 -2.5
20:10 1010 29.83 839 24.78 -14.5 5.8 71 -18.7 -1.7
20:15 1010 29.83 839 24.78 -14.2 6.4 70 -18.6 -1.5
20:20 1010 29.83 839 24.78 -14.2 6.5 69 -18.6 -1.5
20:25 1010 29.83 839 24.78 -14.1 6.7 69 -18.6 -1.4
20:30 1010 29.83 839 24.78 -14.2 6.4 71 -18.4 -1.1
20:35 1010 29.83 839 24.78 -14.2 6.4 73 -18.1 -0.6
20:40 1010 29.83 839 24.78 -12.9 8.8 67 -17.7 0.1
20:45 1010 29.83 839 24.78 -12.4 9.6 64 -17.9 -0.2
20:50 1010 29.83 839 24.78 -13.4 7.9 70 -17.8 -0.1
20:55 1010 29.83 839 24.78 -13.2 8.3 69 -17.6 0.3
21:00 1010 29.83 839 24.78 -13 8.6 69 -17.5 0.6
21:05 1010 29.83 839 24.78 -12.6 9.2 68 -17.4 0.6
21:10 1010 29.83 839 24.78 -12.3 9.9 67 -17.3 0.9
21:15 1010 29.83 839 24.78 -12.3 9.8 67 -17.2 1
21:20 1010 29.83 839 24.78 -12.3 9.9 69 -16.9 1.6
21:25 1010 29.83 839 24.78 -12.1 10.3 66 -17.1 1.1
21:30 1010 29.83 839 24.78 -12.2 10.1 67 -17.1 1.3
21:35 1010 29.83 839 24.78 -11.3 11.8 64 -16.7 1.9
21:40 1010 29.83 839 24.78 -11.2 11.9 68 -16 3.2
21:45 1010 29.83 839 24.78 -11.1 12.1 66 -16.3 2.7
21:50 1010 29.83 839 24.78 -10.8 12.6 64 -16.3 2.7
21:55 1010 29.83 839 24.78 -10.7 12.8 64 -16.3 2.7
22:00 1010 29.83 839 24.78 -10.6 12.8 66 -15.8 3.5
22:05 1010 29.83 839 24.78 -11 12.1 66 -16.2 2.8
22:10 1010 29.83 839 24.78 -11.4 11.5 68 -16.2 2.8
22:15 1010 29.83 839 24.78 -11.8 10.8 68 -16.5 2.3
22:20 1010 29.83 839 24.78 -11.9 10.7 69 -16.5 2.3
22:25 1010 29.83 839 24.78 -11.4 11.5 69 -15.9 3.3
22:30 1010 29.83 839 24.78 -11.4 11.5 68 -16.1 3
22:35 1010 29.83 839 24.78 -11.2 11.8 67 -16.2 2.8
22:40 1010 29.83 839 24.78 -11.2 11.9 66 -16.3 2.6
22:45 1010 29.83 839 24.78 -11 12.3 68 -15.7 3.7
22:50 1010 29.83 839 24.78 -10.6 12.9 68 -15.4 4.2
22:55 1010 29.83 839 24.78 -10.3 13.4 67 -15.4 4.3
23:00 1010 29.83 839 24.78 -10.4 13.2 66 -15.6 3.9
23:05 1009 29.8 839 24.78 -10.4 13.3 66 -15.6 4
23:10 1009 29.8 839 24.78 -10.4 13.3 67 -15.4 4.2
23:15 1009 29.8 839 24.78 -10.3 13.5 68 -15.1 4.8
23:20 1009 29.8 839 24.78 -10.2 13.7 68 -15 5
23:25 1009 29.8 838 24.75 -10.4 13.4 69 -15.1 4.9
23:30 1009 29.8 838 24.75 -10.5 13.1 69 -15 4.9
23:35 1009 29.8 838 24.75 -10.6 13 69 -15.3 4.5
23:40 1009 29.8 838 24.75 -11.3 11.8 70 -15.7 3.7
23:45 1009 29.8 838 24.75 -12.2 10.1 73 -16.1 3
23:50 1009 29.8 838 24.75 -12.7 9.2 76 -16.1 3
23:55 1009 29.8 838 24.75 -12.6 9.4 74 -16.4 2.5
24:00 1009 29.8 838 24.75 -12.8 9 73 -16.7 2